sensor_id;sensor_type;location;lat;lon;timestamp;temperature;humidity
19248;DHT22;9758;48.640;8.148;2023-05-10T00:00:45;16.70;58.80
19248;DHT22;9758;48.640;8.148;2023-05-10T00:03:11;16.70;58.70
19248;DHT22;9758;48.640;8.148;2023-05-10T00:05:38;16.80;58.70
19248;DHT22;9758;48.640;8.148;2023-05-10T00:08:05;16.80;58.70
19248;DHT22;9758;48.640;8.148;2023-05-10T00:10:33;16.80;58.60
19248;DHT22;9758;48.640;8.148;2023-05-10T00:13:00;16.80;58.50
19248;DHT22;9758;48.640;8.148;2023-05-10T00:15:26;16.80;58.50
19248;DHT22;9758;48.640;8.148;2023-05-10T00:17:53;16.80;58.60
19248;DHT22;9758;48.640;8.148;2023-05-10T00:20:20;16.70;58.50
19248;DHT22;9758;48.640;8.148;2023-05-10T00:22:47;16.70;58.50
19248;DHT22;9758;48.640;8.148;2023-05-10T00:25:14;16.80;58.60
19248;DHT22;9758;48.640;8.148;2023-05-10T00:27:42;16.70;58.50
19248;DHT22;9758;48.640;8.148;2023-05-10T00:30:09;16.80;58.60
19248;DHT22;9758;48.640;8.148;2023-05-10T00:32:36;16.70;58.60
19248;DHT22;9758;48.640;8.148;2023-05-10T00:35:03;16.70;58.70
19248;DHT22;9758;48.640;8.148;2023-05-10T00:37:29;16.80;58.70
19248;DHT22;9758;48.640;8.148;2023-05-10T00:39:56;16.80;58.70
19248;DHT22;9758;48.640;8.148;2023-05-10T00:42:23;16.80;58.60
19248;DHT22;9758;48.640;8.148;2023-05-10T00:44:51;16.90;58.70
19248;DHT22;9758;48.640;8.148;2023-05-10T00:47:18;16.80;58.50
19248;DHT22;9758;48.640;8.148;2023-05-10T00:49:45;16.80;58.50
19248;DHT22;9758;48.640;8.148;2023-05-10T00:52:13;16.80;58.50
19248;DHT22;9758;48.640;8.148;2023-05-10T00:54:40;16.80;58.50
19248;DHT22;9758;48.640;8.148;2023-05-10T00:57:06;16.90;58.60
19248;DHT22;9758;48.640;8.148;2023-05-10T00:59:34;16.80;58.50
19248;DHT22;9758;48.640;8.148;2023-05-10T01:02:02;16.80;58.50
19248;DHT22;9758;48.640;8.148;2023-05-10T01:04:29;16.80;58.60
19248;DHT22;9758;48.640;8.148;2023-05-10T01:06:56;16.80;58.60
19248;DHT22;9758;48.640;8.148;2023-05-10T01:09:24;16.80;58.60
19248;DHT22;9758;48.640;8.148;2023-05-10T01:11:51;16.80;58.90
19248;DHT22;9758;48.640;8.148;2023-05-10T01:14:19;16.80;58.60
19248;DHT22;9758;48.640;8.148;2023-05-10T01:16:47;16.80;58.70
19248;DHT22;9758;48.640;8.148;2023-05-10T01:19:20;16.70;58.70
19248;DHT22;9758;48.640;8.148;2023-05-10T01:22:05;16.70;58.70
19248;DHT22;9758;48.640;8.148;2023-05-10T01:24:58;16.80;59.40
19248;DHT22;9758;48.640;8.148;2023-05-10T01:27:52;16.80;58.70
19248;DHT22;9758;48.640;8.148;2023-05-10T01:30:44;16.90;58.70
19248;DHT22;9758;48.640;8.148;2023-05-10T01:33:18;16.90;58.70
19248;DHT22;9758;48.640;8.148;2023-05-10T01:35:51;16.90;58.70
19248;DHT22;9758;48.640;8.148;2023-05-10T01:38:22;16.90;58.60
19248;DHT22;9758;48.640;8.148;2023-05-10T01:41:01;16.90;58.50
19248;DHT22;9758;48.640;8.148;2023-05-10T01:43:37;16.80;58.60
19248;DHT22;9758;48.640;8.148;2023-05-10T01:46:10;16.80;58.70
19248;DHT22;9758;48.640;8.148;2023-05-10T01:48:45;16.80;58.70
19248;DHT22;9758;48.640;8.148;2023-05-10T01:51:16;16.80;58.80
19248;DHT22;9758;48.640;8.148;2023-05-10T01:53:45;16.80;58.80
19248;DHT22;9758;48.640;8.148;2023-05-10T01:56:13;16.80;58.60
19248;DHT22;9758;48.640;8.148;2023-05-10T01:58:43;16.80;58.70
19248;DHT22;9758;48.640;8.148;2023-05-10T02:01:12;16.80;58.70
19248;DHT22;9758;48.640;8.148;2023-05-10T02:03:41;16.80;58.70
19248;DHT22;9758;48.640;8.148;2023-05-10T02:06:09;16.80;58.70
19248;DHT22;9758;48.640;8.148;2023-05-10T02:08:37;16.80;58.70
19248;DHT22;9758;48.640;8.148;2023-05-10T02:11:16;16.80;58.70
19248;DHT22;9758;48.640;8.148;2023-05-10T02:13:44;16.90;58.70
19248;DHT22;9758;48.640;8.148;2023-05-10T02:16:13;16.90;58.70
19248;DHT22;9758;48.640;8.148;2023-05-10T02:18:42;16.90;58.60
19248;DHT22;9758;48.640;8.148;2023-05-10T02:21:10;16.90;58.60
19248;DHT22;9758;48.640;8.148;2023-05-10T02:23:37;16.90;58.70
19248;DHT22;9758;48.640;8.148;2023-05-10T02:26:06;16.80;58.50
19248;DHT22;9758;48.640;8.148;2023-05-10T02:28:35;16.70;58.50
19248;DHT22;9758;48.640;8.148;2023-05-10T02:31:03;16.70;58.50
19248;DHT22;9758;48.640;8.148;2023-05-10T02:33:32;16.70;58.60
19248;DHT22;9758;48.640;8.148;2023-05-10T02:36:02;16.70;58.70
19248;DHT22;9758;48.640;8.148;2023-05-10T02:38:30;16.60;58.70
19248;DHT22;9758;48.640;8.148;2023-05-10T02:40:59;16.60;58.70
19248;DHT22;9758;48.640;8.148;2023-05-10T02:43:26;16.60;58.70
19248;DHT22;9758;48.640;8.148;2023-05-10T02:45:55;16.50;58.80
19248;DHT22;9758;48.640;8.148;2023-05-10T02:48:22;16.50;58.80
19248;DHT22;9758;48.640;8.148;2023-05-10T02:50:50;16.40;58.80
19248;DHT22;9758;48.640;8.148;2023-05-10T02:53:22;16.40;59.00
19248;DHT22;9758;48.640;8.148;2023-05-10T02:55:52;16.30;58.90
19248;DHT22;9758;48.640;8.148;2023-05-10T02:58:22;16.30;59.10
19248;DHT22;9758;48.640;8.148;2023-05-10T03:00:48;16.30;59.10
19248;DHT22;9758;48.640;8.148;2023-05-10T03:03:15;16.30;59.10
19248;DHT22;9758;48.640;8.148;2023-05-10T03:05:42;16.40;59.10
19248;DHT22;9758;48.640;8.148;2023-05-10T03:08:09;16.40;59.10
19248;DHT22;9758;48.640;8.148;2023-05-10T03:10:46;16.40;59.10
19248;DHT22;9758;48.640;8.148;2023-05-10T03:13:22;16.40;59.00
19248;DHT22;9758;48.640;8.148;2023-05-10T03:15:58;16.40;58.90
19248;DHT22;9758;48.640;8.148;2023-05-10T03:18:31;16.40;58.80
19248;DHT22;9758;48.640;8.148;2023-05-10T03:21:02;16.50;58.90
19248;DHT22;9758;48.640;8.148;2023-05-10T03:23:35;16.50;58.90
19248;DHT22;9758;48.640;8.148;2023-05-10T03:26:04;16.50;59.10
19248;DHT22;9758;48.640;8.148;2023-05-10T03:28:34;16.40;58.90
19248;DHT22;9758;48.640;8.148;2023-05-10T03:31:06;16.50;59.00
19248;DHT22;9758;48.640;8.148;2023-05-10T03:33:33;16.40;59.00
19248;DHT22;9758;48.640;8.148;2023-05-10T03:36:00;16.50;59.00
19248;DHT22;9758;48.640;8.148;2023-05-10T03:38:27;16.40;58.90
19248;DHT22;9758;48.640;8.148;2023-05-10T03:40:53;16.40;59.00
19248;DHT22;9758;48.640;8.148;2023-05-10T03:43:22;16.40;59.00
19248;DHT22;9758;48.640;8.148;2023-05-10T03:45:49;16.40;59.00
19248;DHT22;9758;48.640;8.148;2023-05-10T03:48:15;16.50;59.00
19248;DHT22;9758;48.640;8.148;2023-05-10T03:50:42;16.50;59.00
19248;DHT22;9758;48.640;8.148;2023-05-10T03:53:09;16.50;58.90
19248;DHT22;9758;48.640;8.148;2023-05-10T03:55:35;16.50;59.00
19248;DHT22;9758;48.640;8.148;2023-05-10T03:58:02;16.40;59.00
19248;DHT22;9758;48.640;8.148;2023-05-10T04:00:30;16.50;59.10
19248;DHT22;9758;48.640;8.148;2023-05-10T04:02:58;16.50;59.00
19248;DHT22;9758;48.640;8.148;2023-05-10T04:05:24;16.50;59.00
19248;DHT22;9758;48.640;8.148;2023-05-10T04:07:51;16.50;59.00
19248;DHT22;9758;48.640;8.148;2023-05-10T04:10:18;16.50;59.10
19248;DHT22;9758;48.640;8.148;2023-05-10T04:12:44;16.40;59.00
19248;DHT22;9758;48.640;8.148;2023-05-10T04:15:11;16.40;59.00
19248;DHT22;9758;48.640;8.148;2023-05-10T04:17:39;16.40;59.00
19248;DHT22;9758;48.640;8.148;2023-05-10T04:20:07;16.40;59.00
19248;DHT22;9758;48.640;8.148;2023-05-10T04:22:34;16.40;59.00
19248;DHT22;9758;48.640;8.148;2023-05-10T04:25:00;16.40;59.10
19248;DHT22;9758;48.640;8.148;2023-05-10T04:27:27;16.30;59.10
19248;DHT22;9758;48.640;8.148;2023-05-10T04:29:54;16.30;59.10
19248;DHT22;9758;48.640;8.148;2023-05-10T04:32:20;16.30;59.10
19248;DHT22;9758;48.640;8.148;2023-05-10T04:34:48;16.30;59.10
19248;DHT22;9758;48.640;8.148;2023-05-10T04:37:16;16.30;59.10
19248;DHT22;9758;48.640;8.148;2023-05-10T04:39:43;16.30;59.10
19248;DHT22;9758;48.640;8.148;2023-05-10T04:42:10;16.30;59.10
19248;DHT22;9758;48.640;8.148;2023-05-10T04:44:37;16.30;59.10
19248;DHT22;9758;48.640;8.148;2023-05-10T04:47:04;16.30;59.20
19248;DHT22;9758;48.640;8.148;2023-05-10T04:49:30;16.30;59.10
19248;DHT22;9758;48.640;8.148;2023-05-10T04:51:59;16.30;59.20
19248;DHT22;9758;48.640;8.148;2023-05-10T04:54:25;16.30;59.10
19248;DHT22;9758;48.640;8.148;2023-05-10T04:56:53;16.30;59.10
19248;DHT22;9758;48.640;8.148;2023-05-10T04:59:20;16.30;59.10
19248;DHT22;9758;48.640;8.148;2023-05-10T05:01:46;16.30;59.30
19248;DHT22;9758;48.640;8.148;2023-05-10T05:04:13;16.30;59.10
19248;DHT22;9758;48.640;8.148;2023-05-10T05:06:40;16.30;59.10
19248;DHT22;9758;48.640;8.148;2023-05-10T05:09:08;16.30;59.10
19248;DHT22;9758;48.640;8.148;2023-05-10T05:11:35;16.30;59.10
19248;DHT22;9758;48.640;8.148;2023-05-10T05:14:02;16.30;59.10
19248;DHT22;9758;48.640;8.148;2023-05-10T05:16:30;16.40;59.10
19248;DHT22;9758;48.640;8.148;2023-05-10T05:18:57;16.40;59.10
19248;DHT22;9758;48.640;8.148;2023-05-10T05:21:23;16.40;59.00
19248;DHT22;9758;48.640;8.148;2023-05-10T05:23:52;16.40;59.00
19248;DHT22;9758;48.640;8.148;2023-05-10T05:26:20;16.40;59.10
19248;DHT22;9758;48.640;8.148;2023-05-10T05:28:46;16.40;59.10
19248;DHT22;9758;48.640;8.148;2023-05-10T05:31:14;16.40;59.10
19248;DHT22;9758;48.640;8.148;2023-05-10T05:33:40;16.50;59.20
19248;DHT22;9758;48.640;8.148;2023-05-10T05:36:07;16.50;59.20
19248;DHT22;9758;48.640;8.148;2023-05-10T05:38:34;16.50;59.10
19248;DHT22;9758;48.640;8.148;2023-05-10T05:41:01;16.50;59.00
19248;DHT22;9758;48.640;8.148;2023-05-10T05:43:29;16.60;59.10
19248;DHT22;9758;48.640;8.148;2023-05-10T05:45:56;16.60;59.00
19248;DHT22;9758;48.640;8.148;2023-05-10T05:48:23;16.60;59.10
19248;DHT22;9758;48.640;8.148;2023-05-10T05:50:50;16.60;59.00
19248;DHT22;9758;48.640;8.148;2023-05-10T05:53:20;16.60;59.00
19248;DHT22;9758;48.640;8.148;2023-05-10T05:55:51;16.60;58.90
19248;DHT22;9758;48.640;8.148;2023-05-10T05:58:19;16.70;58.90
19248;DHT22;9758;48.640;8.148;2023-05-10T06:00:47;16.60;58.90
19248;DHT22;9758;48.640;8.148;2023-05-10T06:03:14;16.60;58.90
19248;DHT22;9758;48.640;8.148;2023-05-10T06:05:41;16.60;58.80
19248;DHT22;9758;48.640;8.148;2023-05-10T06:08:07;16.60;58.90
19248;DHT22;9758;48.640;8.148;2023-05-10T06:10:34;16.60;58.80
19248;DHT22;9758;48.640;8.148;2023-05-10T06:13:01;16.60;58.80
19248;DHT22;9758;48.640;8.148;2023-05-10T06:15:28;16.60;59.50
19248;DHT22;9758;48.640;8.148;2023-05-10T06:17:56;16.70;58.90
19248;DHT22;9758;48.640;8.148;2023-05-10T06:20:22;16.70;58.80
19248;DHT22;9758;48.640;8.148;2023-05-10T06:22:49;16.60;59.30
19248;DHT22;9758;48.640;8.148;2023-05-10T06:25:16;16.60;58.80
19248;DHT22;9758;48.640;8.148;2023-05-10T06:27:43;16.60;58.80
19248;DHT22;9758;48.640;8.148;2023-05-10T06:30:11;16.60;58.80
19248;DHT22;9758;48.640;8.148;2023-05-10T06:32:38;16.60;58.80
19248;DHT22;9758;48.640;8.148;2023-05-10T06:35:08;16.60;58.90
19248;DHT22;9758;48.640;8.148;2023-05-10T06:37:34;16.60;58.90
19248;DHT22;9758;48.640;8.148;2023-05-10T06:40:01;16.60;59.00
19248;DHT22;9758;48.640;8.148;2023-05-10T06:42:30;16.50;58.90
19248;DHT22;9758;48.640;8.148;2023-05-10T06:44:56;16.50;58.90
19248;DHT22;9758;48.640;8.148;2023-05-10T06:47:23;16.60;59.10
19248;DHT22;9758;48.640;8.148;2023-05-10T06:49:50;16.60;59.00
19248;DHT22;9758;48.640;8.148;2023-05-10T06:52:18;16.60;59.00
19248;DHT22;9758;48.640;8.148;2023-05-10T06:54:45;16.60;59.00
19248;DHT22;9758;48.640;8.148;2023-05-10T06:57:11;16.60;59.60
19248;DHT22;9758;48.640;8.148;2023-05-10T06:59:38;16.60;59.00
19248;DHT22;9758;48.640;8.148;2023-05-10T07:02:05;16.70;59.10
19248;DHT22;9758;48.640;8.148;2023-05-10T07:04:32;16.70;59.10
19248;DHT22;9758;48.640;8.148;2023-05-10T07:06:59;16.80;58.90
19248;DHT22;9758;48.640;8.148;2023-05-10T07:09:28;16.90;58.90
19248;DHT22;9758;48.640;8.148;2023-05-10T07:11:55;16.90;58.80
19248;DHT22;9758;48.640;8.148;2023-05-10T07:14:23;16.90;58.70
19248;DHT22;9758;48.640;8.148;2023-05-10T07:16:49;17.00;58.70
19248;DHT22;9758;48.640;8.148;2023-05-10T07:19:16;17.00;58.70
19248;DHT22;9758;48.640;8.148;2023-05-10T07:21:43;17.00;58.70
19248;DHT22;9758;48.640;8.148;2023-05-10T07:24:09;17.00;58.70
19248;DHT22;9758;48.640;8.148;2023-05-10T07:26:38;17.00;58.60
19248;DHT22;9758;48.640;8.148;2023-05-10T07:29:04;17.10;58.60
19248;DHT22;9758;48.640;8.148;2023-05-10T07:31:32;17.10;58.50
19248;DHT22;9758;48.640;8.148;2023-05-10T07:33:58;17.10;58.50
19248;DHT22;9758;48.640;8.148;2023-05-10T07:36:25;17.10;58.40
19248;DHT22;9758;48.640;8.148;2023-05-10T07:38:53;17.10;58.40
19248;DHT22;9758;48.640;8.148;2023-05-10T07:41:20;17.10;58.40
19248;DHT22;9758;48.640;8.148;2023-05-10T07:43:49;17.10;58.50
19248;DHT22;9758;48.640;8.148;2023-05-10T07:46:15;17.10;58.40
19248;DHT22;9758;48.640;8.148;2023-05-10T07:48:42;17.10;58.50
19248;DHT22;9758;48.640;8.148;2023-05-10T07:51:09;17.10;58.40
19248;DHT22;9758;48.640;8.148;2023-05-10T07:53:36;17.10;58.40
19248;DHT22;9758;48.640;8.148;2023-05-10T07:56:27;17.10;58.30
19248;DHT22;9758;48.640;8.148;2023-05-10T07:58:56;17.10;58.30
19248;DHT22;9758;48.640;8.148;2023-05-10T08:01:24;17.10;58.30
19248;DHT22;9758;48.640;8.148;2023-05-10T08:03:51;17.10;58.30
19248;DHT22;9758;48.640;8.148;2023-05-10T08:06:18;17.00;58.20
19248;DHT22;9758;48.640;8.148;2023-05-10T08:08:46;17.00;58.30
19248;DHT22;9758;48.640;8.148;2023-05-10T08:11:15;17.00;58.30
19248;DHT22;9758;48.640;8.148;2023-05-10T08:13:41;16.90;58.30
19248;DHT22;9758;48.640;8.148;2023-05-10T08:16:09;16.90;58.40
19248;DHT22;9758;48.640;8.148;2023-05-10T08:18:36;16.90;58.50
19248;DHT22;9758;48.640;8.148;2023-05-10T08:21:03;16.90;58.60
19248;DHT22;9758;48.640;8.148;2023-05-10T08:23:30;16.90;58.60
19248;DHT22;9758;48.640;8.148;2023-05-10T08:25:56;16.90;58.60
19248;DHT22;9758;48.640;8.148;2023-05-10T08:28:23;17.00;58.70
19248;DHT22;9758;48.640;8.148;2023-05-10T08:30:50;17.00;58.50
19248;DHT22;9758;48.640;8.148;2023-05-10T08:33:19;17.00;58.50
19248;DHT22;9758;48.640;8.148;2023-05-10T08:35:45;17.00;58.60
19248;DHT22;9758;48.640;8.148;2023-05-10T08:38:12;17.00;58.60
19248;DHT22;9758;48.640;8.148;2023-05-10T08:40:41;17.10;58.60
19248;DHT22;9758;48.640;8.148;2023-05-10T08:43:12;17.20;58.60
19248;DHT22;9758;48.640;8.148;2023-05-10T08:45:41;17.20;58.50
19248;DHT22;9758;48.640;8.148;2023-05-10T08:48:09;17.30;58.50
19248;DHT22;9758;48.640;8.148;2023-05-10T08:50:39;17.30;58.50
19248;DHT22;9758;48.640;8.148;2023-05-10T08:53:09;17.30;58.30
19248;DHT22;9758;48.640;8.148;2023-05-10T08:55:36;17.20;58.50
19248;DHT22;9758;48.640;8.148;2023-05-10T08:58:04;16.70;58.70
19248;DHT22;9758;48.640;8.148;2023-05-10T09:00:31;16.30;59.00
19248;DHT22;9758;48.640;8.148;2023-05-10T09:02:58;15.90;59.90
19248;DHT22;9758;48.640;8.148;2023-05-10T09:05:24;15.70;60.20
19248;DHT22;9758;48.640;8.148;2023-05-10T09:07:53;15.50;60.80
19248;DHT22;9758;48.640;8.148;2023-05-10T09:10:20;15.30;60.70
19248;DHT22;9758;48.640;8.148;2023-05-10T09:12:48;15.20;61.40
19248;DHT22;9758;48.640;8.148;2023-05-10T09:15:15;15.20;61.70
19248;DHT22;9758;48.640;8.148;2023-05-10T09:17:45;15.20;61.70
19248;DHT22;9758;48.640;8.148;2023-05-10T09:20:12;15.30;62.00
19248;DHT22;9758;48.640;8.148;2023-05-10T09:22:39;15.40;62.10
19248;DHT22;9758;48.640;8.148;2023-05-10T09:25:09;15.50;62.10
19248;DHT22;9758;48.640;8.148;2023-05-10T09:27:37;15.60;62.00
19248;DHT22;9758;48.640;8.148;2023-05-10T09:30:05;15.70;61.90
19248;DHT22;9758;48.640;8.148;2023-05-10T09:32:38;15.70;61.90
19248;DHT22;9758;48.640;8.148;2023-05-10T09:35:09;15.80;62.00
19248;DHT22;9758;48.640;8.148;2023-05-10T09:37:35;15.90;62.00
19248;DHT22;9758;48.640;8.148;2023-05-10T09:40:06;16.10;62.20
19248;DHT22;9758;48.640;8.148;2023-05-10T09:42:36;16.20;62.30
19248;DHT22;9758;48.640;8.148;2023-05-10T09:45:04;16.30;62.30
19248;DHT22;9758;48.640;8.148;2023-05-10T09:47:32;16.50;62.30
19248;DHT22;9758;48.640;8.148;2023-05-10T09:50:00;16.60;62.20
19248;DHT22;9758;48.640;8.148;2023-05-10T09:52:29;16.70;62.20
19248;DHT22;9758;48.640;8.148;2023-05-10T09:54:56;16.80;62.30
19248;DHT22;9758;48.640;8.148;2023-05-10T09:57:25;17.00;62.30
19248;DHT22;9758;48.640;8.148;2023-05-10T09:59:52;17.10;62.30
19248;DHT22;9758;48.640;8.148;2023-05-10T10:02:19;17.20;62.40
19248;DHT22;9758;48.640;8.148;2023-05-10T10:04:49;17.40;62.50
19248;DHT22;9758;48.640;8.148;2023-05-10T10:07:23;17.50;62.30
19248;DHT22;9758;48.640;8.148;2023-05-10T10:09:51;17.70;62.30
19248;DHT22;9758;48.640;8.148;2023-05-10T10:12:18;17.80;62.30
19248;DHT22;9758;48.640;8.148;2023-05-10T10:14:47;18.00;62.10
19248;DHT22;9758;48.640;8.148;2023-05-10T10:17:16;18.00;61.80
19248;DHT22;9758;48.640;8.148;2023-05-10T10:19:43;18.10;61.60
19248;DHT22;9758;48.640;8.148;2023-05-10T10:22:11;18.00;61.60
19248;DHT22;9758;48.640;8.148;2023-05-10T10:24:38;18.10;61.60
19248;DHT22;9758;48.640;8.148;2023-05-10T10:27:15;18.10;61.40
19248;DHT22;9758;48.640;8.148;2023-05-10T10:29:58;18.00;61.40
19248;DHT22;9758;48.640;8.148;2023-05-10T10:32:30;18.10;61.70
19248;DHT22;9758;48.640;8.148;2023-05-10T10:35:23;18.10;61.70
19248;DHT22;9758;48.640;8.148;2023-05-10T10:37:51;18.20;62.00
19248;DHT22;9758;48.640;8.148;2023-05-10T10:40:25;18.30;61.70
19248;DHT22;9758;48.640;8.148;2023-05-10T10:42:52;18.40;61.50
19248;DHT22;9758;48.640;8.148;2023-05-10T10:45:21;18.30;61.50
19248;DHT22;9758;48.640;8.148;2023-05-10T10:47:48;18.40;61.50
19248;DHT22;9758;48.640;8.148;2023-05-10T10:50:17;18.50;61.60
19248;DHT22;9758;48.640;8.148;2023-05-10T10:52:44;18.50;61.40
19248;DHT22;9758;48.640;8.148;2023-05-10T10:55:12;18.60;61.50
19248;DHT22;9758;48.640;8.148;2023-05-10T10:57:46;18.70;62.00
19248;DHT22;9758;48.640;8.148;2023-05-10T11:00:26;18.80;60.90
19248;DHT22;9758;48.640;8.148;2023-05-10T11:02:56;18.80;60.60
19248;DHT22;9758;48.640;8.148;2023-05-10T11:05:24;18.90;60.50
19248;DHT22;9758;48.640;8.148;2023-05-10T11:07:57;18.90;60.30
19248;DHT22;9758;48.640;8.148;2023-05-10T11:10:25;19.00;60.30
19248;DHT22;9758;48.640;8.148;2023-05-10T11:12:53;19.00;60.10
19248;DHT22;9758;48.640;8.148;2023-05-10T11:15:30;19.00;59.70
19248;DHT22;9758;48.640;8.148;2023-05-10T11:17:57;19.00;59.40
19248;DHT22;9758;48.640;8.148;2023-05-10T11:20:27;18.90;59.50
19248;DHT22;9758;48.640;8.148;2023-05-10T11:23:10;18.80;59.50
19248;DHT22;9758;48.640;8.148;2023-05-10T11:25:41;18.70;59.60
19248;DHT22;9758;48.640;8.148;2023-05-10T11:28:09;18.60;59.20
19248;DHT22;9758;48.640;8.148;2023-05-10T11:30:38;18.50;59.20
19248;DHT22;9758;48.640;8.148;2023-05-10T11:33:05;18.40;59.40
19248;DHT22;9758;48.640;8.148;2023-05-10T11:35:37;18.30;59.60
19248;DHT22;9758;48.640;8.148;2023-05-10T11:38:06;18.40;59.70
19248;DHT22;9758;48.640;8.148;2023-05-10T11:40:33;18.40;60.00
19248;DHT22;9758;48.640;8.148;2023-05-10T11:43:00;18.60;60.20
19248;DHT22;9758;48.640;8.148;2023-05-10T11:45:27;18.80;60.30
19248;DHT22;9758;48.640;8.148;2023-05-10T11:47:56;19.00;59.90
19248;DHT22;9758;48.640;8.148;2023-05-10T11:50:23;19.10;59.20
19248;DHT22;9758;48.640;8.148;2023-05-10T11:52:51;19.10;58.30
19248;DHT22;9758;48.640;8.148;2023-05-10T11:55:18;19.10;58.70
19248;DHT22;9758;48.640;8.148;2023-05-10T11:57:45;19.10;59.10
19248;DHT22;9758;48.640;8.148;2023-05-10T12:00:12;19.20;59.00
19248;DHT22;9758;48.640;8.148;2023-05-10T12:02:40;19.30;58.80
19248;DHT22;9758;48.640;8.148;2023-05-10T12:05:09;19.40;58.50
19248;DHT22;9758;48.640;8.148;2023-05-10T12:07:36;19.40;58.30
19248;DHT22;9758;48.640;8.148;2023-05-10T12:10:08;19.50;58.30
19248;DHT22;9758;48.640;8.148;2023-05-10T12:12:37;19.50;58.30
19248;DHT22;9758;48.640;8.148;2023-05-10T12:15:04;19.60;58.30
19248;DHT22;9758;48.640;8.148;2023-05-10T12:17:32;19.60;58.10
19248;DHT22;9758;48.640;8.148;2023-05-10T12:19:59;19.70;58.30
19248;DHT22;9758;48.640;8.148;2023-05-10T12:22:40;19.90;58.20
19248;DHT22;9758;48.640;8.148;2023-05-10T12:25:08;20.00;57.90
19248;DHT22;9758;48.640;8.148;2023-05-10T12:27:36;20.10;57.80
19248;DHT22;9758;48.640;8.148;2023-05-10T12:30:04;20.20;57.80
19248;DHT22;9758;48.640;8.148;2023-05-10T12:35:06;20.40;57.80
19248;DHT22;9758;48.640;8.148;2023-05-10T12:37:36;20.30;57.00
19248;DHT22;9758;48.640;8.148;2023-05-10T12:40:08;20.30;57.00
19248;DHT22;9758;48.640;8.148;2023-05-10T12:42:36;20.20;56.80
19248;DHT22;9758;48.640;8.148;2023-05-10T12:45:04;20.20;56.70
19248;DHT22;9758;48.640;8.148;2023-05-10T12:47:32;20.00;57.40
19248;DHT22;9758;48.640;8.148;2023-05-10T12:50:00;19.90;56.60
19248;DHT22;9758;48.640;8.148;2023-05-10T12:52:27;19.70;56.60
19248;DHT22;9758;48.640;8.148;2023-05-10T12:54:54;19.70;56.90
19248;DHT22;9758;48.640;8.148;2023-05-10T12:57:22;19.60;57.10
19248;DHT22;9758;48.640;8.148;2023-05-10T12:59:48;19.70;57.20
19248;DHT22;9758;48.640;8.148;2023-05-10T13:02:15;19.70;57.30
19248;DHT22;9758;48.640;8.148;2023-05-10T13:04:43;19.70;57.30
19248;DHT22;9758;48.640;8.148;2023-05-10T13:07:11;19.80;57.00
19248;DHT22;9758;48.640;8.148;2023-05-10T13:09:38;19.80;57.00
19248;DHT22;9758;48.640;8.148;2023-05-10T13:12:05;19.80;56.80
19248;DHT22;9758;48.640;8.148;2023-05-10T13:14:33;19.90;56.80
19248;DHT22;9758;48.640;8.148;2023-05-10T13:17:00;19.80;56.50
19248;DHT22;9758;48.640;8.148;2023-05-10T13:19:27;19.80;56.70
19248;DHT22;9758;48.640;8.148;2023-05-10T13:21:53;19.70;56.70
19248;DHT22;9758;48.640;8.148;2023-05-10T13:24:20;19.70;56.70
19248;DHT22;9758;48.640;8.148;2023-05-10T13:27:18;19.60;56.70
19248;DHT22;9758;48.640;8.148;2023-05-10T13:29:46;19.60;56.90
19248;DHT22;9758;48.640;8.148;2023-05-10T13:32:13;19.60;57.00
19248;DHT22;9758;48.640;8.148;2023-05-10T13:34:39;19.70;57.20
19248;DHT22;9758;48.640;8.148;2023-05-10T13:37:06;19.70;57.30
19248;DHT22;9758;48.640;8.148;2023-05-10T13:39:35;19.90;57.50
19248;DHT22;9758;48.640;8.148;2023-05-10T13:42:03;20.10;57.50
19248;DHT22;9758;48.640;8.148;2023-05-10T13:44:29;20.20;57.40
19248;DHT22;9758;48.640;8.148;2023-05-10T13:46:57;20.40;57.30
19248;DHT22;9758;48.640;8.148;2023-05-10T13:49:24;20.60;57.20
19248;DHT22;9758;48.640;8.148;2023-05-10T13:51:51;20.80;57.10
19248;DHT22;9758;48.640;8.148;2023-05-10T13:54:18;21.00;56.90
19248;DHT22;9758;48.640;8.148;2023-05-10T13:56:47;21.20;56.70
19248;DHT22;9758;48.640;8.148;2023-05-10T13:59:14;21.30;56.50
19248;DHT22;9758;48.640;8.148;2023-05-10T14:01:58;21.50;56.10
19248;DHT22;9758;48.640;8.148;2023-05-10T14:04:25;21.50;55.90
19248;DHT22;9758;48.640;8.148;2023-05-10T14:06:51;21.50;55.30
19248;DHT22;9758;48.640;8.148;2023-05-10T14:09:19;21.40;55.10
19248;DHT22;9758;48.640;8.148;2023-05-10T14:11:46;21.30;55.50
19248;DHT22;9758;48.640;8.148;2023-05-10T14:14:13;21.30;55.80
19248;DHT22;9758;48.640;8.148;2023-05-10T14:16:42;21.30;55.80
19248;DHT22;9758;48.640;8.148;2023-05-10T14:19:10;21.40;55.70
19248;DHT22;9758;48.640;8.148;2023-05-10T14:21:37;21.40;55.70
19248;DHT22;9758;48.640;8.148;2023-05-10T14:24:04;21.40;55.60
19248;DHT22;9758;48.640;8.148;2023-05-10T14:26:32;21.50;55.40
19248;DHT22;9758;48.640;8.148;2023-05-10T14:28:59;21.40;55.30
19248;DHT22;9758;48.640;8.148;2023-05-10T14:31:26;21.40;55.20
19248;DHT22;9758;48.640;8.148;2023-05-10T14:33:54;21.40;55.10
19248;DHT22;9758;48.640;8.148;2023-05-10T14:36:22;21.30;54.70
19248;DHT22;9758;48.640;8.148;2023-05-10T14:38:48;21.00;54.00
19248;DHT22;9758;48.640;8.148;2023-05-10T14:41:15;20.80;54.60
19248;DHT22;9758;48.640;8.148;2023-05-10T14:43:43;20.50;53.20
19248;DHT22;9758;48.640;8.148;2023-05-10T14:46:09;20.10;53.80
19248;DHT22;9758;48.640;8.148;2023-05-10T14:48:36;19.70;54.90
19248;DHT22;9758;48.640;8.148;2023-05-10T14:51:03;19.40;55.60
19248;DHT22;9758;48.640;8.148;2023-05-10T14:53:31;19.30;55.80
19248;DHT22;9758;48.640;8.148;2023-05-10T14:56:08;19.20;56.10
19248;DHT22;9758;48.640;8.148;2023-05-10T14:58:35;19.20;56.20
19248;DHT22;9758;48.640;8.148;2023-05-10T15:01:01;19.20;56.40
19248;DHT22;9758;48.640;8.148;2023-05-10T15:03:28;19.40;56.60
19248;DHT22;9758;48.640;8.148;2023-05-10T15:05:55;19.60;56.50
19248;DHT22;9758;48.640;8.148;2023-05-10T15:08:23;19.70;56.30
19248;DHT22;9758;48.640;8.148;2023-05-10T15:10:51;19.90;56.00
19248;DHT22;9758;48.640;8.148;2023-05-10T15:13:20;20.00;55.80
19248;DHT22;9758;48.640;8.148;2023-05-10T15:15:47;20.10;55.50
19248;DHT22;9758;48.640;8.148;2023-05-10T15:18:14;20.10;54.80
19248;DHT22;9758;48.640;8.148;2023-05-10T15:20:40;20.00;55.00
19248;DHT22;9758;48.640;8.148;2023-05-10T15:23:07;19.90;55.20
19248;DHT22;9758;48.640;8.148;2023-05-10T15:25:34;19.80;55.40
19248;DHT22;9758;48.640;8.148;2023-05-10T15:28:04;19.80;55.10
19248;DHT22;9758;48.640;8.148;2023-05-10T15:30:31;19.70;55.20
19248;DHT22;9758;48.640;8.148;2023-05-10T15:32:58;19.50;54.90
19248;DHT22;9758;48.640;8.148;2023-05-10T15:35:25;19.30;54.80
19248;DHT22;9758;48.640;8.148;2023-05-10T15:37:52;19.00;55.10
19248;DHT22;9758;48.640;8.148;2023-05-10T15:40:19;18.80;55.10
19248;DHT22;9758;48.640;8.148;2023-05-10T15:42:46;18.70;55.60
19248;DHT22;9758;48.640;8.148;2023-05-10T15:45:14;18.60;55.80
19248;DHT22;9758;48.640;8.148;2023-05-10T15:47:41;18.60;56.10
19248;DHT22;9758;48.640;8.148;2023-05-10T15:50:09;18.70;56.30
19248;DHT22;9758;48.640;8.148;2023-05-10T15:52:36;18.70;56.30
19248;DHT22;9758;48.640;8.148;2023-05-10T15:55:04;18.80;56.30